AirNav  
 
 620 users online  

KSCA
(formerly I12)
Sidney Municipal Airport
Sidney, Ohio, USA

GOING TO SIDNEY?


FAA INFORMATION EFFECTIVE 09 NOVEMBER 2017

Location

FAA Identifier: SCA
Lat/Long: 40-14-28.6000N / 084-08-52.3000W
40-14.476667N / 084-08.871667W
40.2412778 / -84.1478611
(estimated)
Elevation: 1044 ft. / 318.2 m (surveyed)
Variation: 05W (1995)
From city: 3 miles S of SIDNEY, OH
Time zone: UTC -5 (UTC -4 during Daylight Saving Time)
Zip code: 45365

Airport Operations

Airport use: Open to the public
Activation date: 12/1956
Control tower: no
ARTCC: INDIANAPOLIS CENTER
FSS: DAYTON FLIGHT SERVICE STATION
NOTAMs facility: DAY (NOTAM-D service available)
Attendance: 0800-1800
Pattern altitude: 1844 ft. MSL
Wind indicator: lighted
Segmented circle: no
Lights: ACTVT MIRL RY 10/28 & REIL RY 28 - CTAF.
Beacon: white-green (lighted land airport)
Operates sunset to sunrise.

Airport Communications

CTAF/UNICOM: 123.05
WX AWOS-3: 120.425 (937-492-3683)
COLUMBUS APPROACH: 118.425 [0600-2300]
COLUMBUS DEPARTURE: 118.425 [0600-2300]
CLASS C IC: 118.425
WX AWOS-3 at AXV (17 nm NW): 128.325 (419-753-2821)
WX AWOS-3 at EDJ (17 nm NE): 118.075 (937-599-4654)
WX AWOS-3 at VES (18 nm W): 125.9 (937-526-3154)
WX AWOS-3 at I74 (19 nm E): 118.325 (937-484-5863)

Nearby radio navigation aids

VOR radial/distance  VOR name  Freq  Var
RODr245/5.5ROSEWOOD VORTAC117.5005W
DQNr041/17.7DAYTON VOR/DME114.5001W
SGHr334/28.0SPRINGFIELD VOR/DME113.2004W

 
NDB name  Hdg/Dist  Freq  Var  ID
CLARK COUNTY327/27.834104WCCJ -.-. -.-. .---

Airport Services

Fuel available: 100LL JET-A+
Parking: hangars and tiedowns
Airframe service: MAJOR
Powerplant service: MAJOR
Bottled oxygen: NONE
Bulk oxygen: LOW

Runway Information

Runway 10/28

Dimensions: 5013 x 75 ft. / 1528 x 23 m
Surface: asphalt, in excellent condition
Runway edge lights: medium intensity
RUNWAY 10  RUNWAY 28
Latitude: 40-14.562002N40-14.501402N
Longitude: 084-09.268428W084-08.193928W
Elevation: 1039.9 ft.1041.4 ft.
Traffic pattern: leftleft
Runway heading: 099 magnetic, 094 true279 magnetic, 274 true
Markings: nonprecision, in good conditionnonprecision, in good condition
Visual slope indicator: 2-light PAPI on left (3.00 degrees glide path)2-light PAPI on left (3.00 degrees glide path)
Runway end identifier lights: yesyes
Touchdown point: yes, no lightsyes, no lights
Obstructions: 55 ft. trees, 1329 ft. from runway, 393 ft. left of centerline, 20:1 slope to clear6 ft. hill, 201 ft. from runway, 100 ft. left and right of centerline
+6 FT HILL 0 FT FM 130 FT R TO 250 FT R EXTENDING 200 FT FM 100 FT R TO 250 FT R, +6 FT HILL 50 FT FM 130 FT L TO 250 FT L EXTENDING 200 FT FM 100 FT L TO 250 FT L.

Runway 5/23

Dimensions: 2981 x 50 ft. / 909 x 15 m
Surface: asphalt, in good condition
Runway edge markings: MARKINGS FADED
RUNWAY 5  RUNWAY 23
Latitude: 40-14.196817N40-14.573717N
Longitude: 084-09.310567W084-08.900017W
Elevation: 1034.8 ft.1040.5 ft.
Gradient: 0.2%0.2%
Traffic pattern: leftleft
Runway heading: 045 magnetic, 040 true225 magnetic, 220 true
Markings: nonprecision, in poor conditionnonprecision, in poor condition
Runway end identifier lights: nono
Touchdown point: yes, no lightsyes, no lights
Obstructions: 15 ft. road, 201 ft. from runway, 134 ft. right of centerline76 ft. pline, 2130 ft. from runway, 536 ft. right of centerline, 25:1 slope to clear
0:1 SLOPE TO CULTIVATION 0B 201 FT FM.

Airport Ownership and Management from official FAA records

Ownership: Publicly-owned
Owner: CITY OF SIDNEY
201 W POPLAR ST
SIDNEY, OH 45365
Phone 937-498-2335
Manager: MIKE CHAPPIE
14833 SIDNEY-PLATTSVILLE RD
SIDNEY, OH 45365
Phone 937-492-9794

Airport Operational Statistics

Aircraft based on the field: 37
Single engine airplanes: 32
Multi engine airplanes: 2
Jet airplanes: 3
    
Aircraft operations: avg 56/day *
72% local general aviation
27% transient general aviation
1% air taxi
<1% military
* for 12-month period ending 01 August 2014

Additional Remarks

COLUMBUS CD (614) 338-8537.

Instrument Procedures

NOTE: All procedures below are presented as PDF files. If you need a reader for these files, you should download the free Adobe Reader.

NOT FOR NAVIGATION. Please procure official charts for flight.
FAA instrument procedures published for use between 9 November 2017 at 0901Z and 7 December 2017 at 0900Z.

 
IAPs - Instrument Approach Procedures
RNAV (GPS) RWY 10   download (234KB)
RNAV (GPS) RWY 28   download (227KB)
VOR-A   download (170KB)
NOTE: Special Take-Off Minimums/Departure Procedures apply   download (187KB)

Other nearby airports with instrument procedures:

I17 - Piqua Airport - Hartzell Field (9 nm SW)
KAXV - Neil Armstrong Airport (17 nm NW)
KEDJ - Bellefontaine Regional Airport (17 nm NE)
KVES - Darke County Airport (18 nm W)
I74 - Grimes Field Airport (19 nm E)
 
Loc | Ops | Rwys | IFR | FBO | Links
Com | Nav | Svcs | Stats | Notes


 
Area around KSCA (Sidney Municipal Airport)
 
Road maps at: MapQuest Bing Google
 
Aerial photo
WARNING: Photo may not be current or correct
Aerial photo of KSCA (Sidney Municipal Airport)
Taken late September 2008

Do you have a better or more recent aerial photo of Sidney Municipal Airport that you would like to share? If so, please send us your photo.

 
Sectional chart

 
Airport distance calculator
Flying to Sidney Municipal Airport? Find the distance to fly.

From to KSCA

Sunrise and sunset
Times for 19-Nov-2017
 Local
(UTC-5)
 Zulu
(UTC)
Morning civil twilight06:5911:59
Sunrise07:2812:28
Sunset17:1622:16
Evening civil twilight17:4522:45

Current date and time
Zulu (UTC)  19-Nov-2017 05:22:03
Local (UTC-5)  19-Nov-2017 00:22:03
 
METAR
KAXV 
17nm NW 
190453Z AUTO 31009G16KT 10SM BKN014 OVC019 05/05 A2964 RMK AO2
KEDJ 
17nm NE 
190455Z AUTO 32014G23KT 10SM OVC014 03/03 A2961 RMK AO1 P0006
KVES 
18nm W 
190455Z AUTO 31014G21KT 10SM BKN021 OVC026 04/03 A2966 RMK AO2 P0003
KDAY 
21nm S 
190456Z 30015G23KT 10SM BKN019 BKN023 OVC042 04/03 A2966 RMK AO2 PK WND 32027/0423 RAE02 SLP044 P0000 T00440033 401670033
KFFO 
26nm S 
190458Z 31011G20KT 10SM BKN020 OVC025 05/04 A2965 RMK AO2A CIG 019V021 PRESRR SLP044 P0000 T00480035 401790040
KAOH 
28nm N 
182032Z AUTO 18009KT 4SM RA BR FEW012 BKN055 OVC075 13/13 A2918 RMK AO2 LTG DSNT SE-SW P0015 T01280128
KSGH 
30nm SE 
190456Z AUTO 30016G25KT 10SM BKN015 OVC020 04/02 A2963 RMK AO2 PK WND 32027/0407 RAE39 SLP038 P0000 T00390022 $
TAF
KDAY 
21nm S 
190350Z 1904/1924 31021G32KT P6SM OVC015 TEMPO 1904/1906 5SM -DZ BR OVC009 FM190600 31020G30KT P6SM OVC012 FM191100 30013G22KT P6SM OVC022 FM192100 29013G20KT P6SM BKN035 FM192300 28011KT P6SM SCT250
NOTAMs
Click for the latest NOTAMs
NOTAMs are issued by the DoD/FAA and will open in a separate window not controlled by AirNav.

 

 
 

FBO, Fuel Providers, and Aircraft Ground Support

  
 Business Name 
 
 Contact 
 
 Services / Description 
 
Fuel Prices
 
Comments
  
Aerotech Aviation LLC 937-492-9794
no information available

If you are affiliated with Aerotech Aviation LLC and would like to show here your services, contact info, web link, logo, and more, click here
100LL Jet A
SS $5.05 $3.39 
 Updated 07-Nov-2017
 
   2 read write
SS=Self service
Update Fuel Prices
 

Would you like to see your business listed on this page?

 If your business provides an interesting product or service to pilots, flight crews, aircraft, or users of the Sidney Municipal Airport, you should consider listing it here.  To start the listing process, click on the button below
 
Add a business
 

Other Pages about Sidney Municipal Airport

www.sidneypilots.org/sid_airport.html
 
Update a link
 
Copyright © AirNav, LLC. All rights reserved. Privacy Policy  Contact